createdAt,value
2023-04-10T00:00:49.514Z,7.53
2023-04-10T00:01:49.610Z,7.50
2023-04-10T00:02:49.643Z,7.50
2023-04-10T00:03:49.679Z,7.52
2023-04-10T00:04:49.555Z,7.53
2023-04-10T00:05:49.429Z,7.53
2023-04-10T00:06:49.498Z,7.52
2023-04-10T00:07:49.402Z,7.52
2023-04-10T00:08:49.406Z,7.55
2023-04-10T00:09:49.419Z,7.58
2023-04-10T00:10:49.385Z,7.61
2023-04-10T00:11:49.446Z,7.63
2023-04-10T00:12:49.375Z,7.63
2023-04-10T00:13:49.358Z,7.61
2023-04-10T00:14:49.309Z,7.61
2023-04-10T00:15:49.341Z,7.57
2023-04-10T00:16:49.385Z,7.52
2023-04-10T00:17:49.342Z,7.50
2023-04-10T00:18:49.276Z,7.46
2023-04-10T00:19:49.275Z,7.43
2023-04-10T00:20:49.246Z,7.40
2023-04-10T00:21:49.262Z,7.35
2023-04-10T00:22:49.306Z,7.30
2023-04-10T00:23:49.228Z,7.25
2023-04-10T00:24:49.199Z,7.21
2023-04-10T00:25:49.209Z,7.16
2023-04-10T00:26:49.170Z,7.10
2023-04-10T00:27:49.166Z,7.06
2023-04-10T00:28:49.125Z,7.03
2023-04-10T00:29:49.169Z,7.02
2023-04-10T00:30:49.104Z,6.99
2023-04-10T00:31:49.169Z,6.94
2023-04-10T00:32:49.123Z,6.87
2023-04-10T00:33:49.107Z,6.80
2023-04-10T00:34:49.065Z,6.76
2023-04-10T00:35:49.113Z,6.71
2023-04-10T00:36:49.039Z,6.67
2023-04-10T00:37:49.063Z,6.62
2023-04-10T00:38:49.446Z,6.62
2023-04-10T00:39:49.020Z,6.59
2023-04-10T00:40:48.995Z,6.58
2023-04-10T00:41:49.003Z,6.59
2023-04-10T00:42:48.973Z,6.64
2023-04-10T00:43:48.954Z,6.67
2023-04-10T00:44:48.955Z,6.64
2023-04-10T00:45:50.700Z,6.52
2023-04-10T00:46:48.922Z,6.33
2023-04-10T00:47:48.953Z,6.06
2023-04-10T00:48:48.872Z,5.89
2023-04-10T00:49:48.878Z,5.79
2023-04-10T00:50:48.848Z,5.75
2023-04-10T00:51:48.897Z,5.64
2023-04-10T00:52:48.851Z,5.45
2023-04-10T00:53:48.827Z,5.24
2023-04-10T00:54:48.796Z,5.13
2023-04-10T00:55:48.860Z,5.10
2023-04-10T00:56:48.791Z,5.09
2023-04-10T00:57:48.785Z,5.10
2023-04-10T00:58:48.734Z,5.15
2023-04-10T00:59:48.770Z,5.12
2023-04-10T01:00:48.725Z,5.12
2023-04-10T01:02:59.034Z,5.10
2023-04-10T01:04:00.427Z,4.97
2023-04-10T01:04:59.821Z,4.80
2023-04-10T01:05:59.777Z,4.67
2023-04-10T01:06:59.799Z,4.65
2023-04-10T01:07:59.753Z,4.65
2023-04-10T01:08:59.769Z,4.62
2023-04-10T01:09:59.726Z,4.55
2023-04-10T01:10:59.754Z,4.58
2023-04-10T01:11:59.690Z,4.59
2023-04-10T01:12:59.736Z,4.54
2023-04-10T01:13:59.666Z,4.48
2023-04-10T01:14:59.692Z,4.47
2023-04-10T01:15:59.638Z,4.50
2023-04-10T01:16:59.682Z,4.58
2023-04-10T01:17:59.691Z,4.66
2023-04-10T01:18:59.627Z,4.75
2023-04-10T01:19:59.598Z,4.84
2023-04-10T01:20:59.613Z,4.88
2023-04-10T01:21:59.634Z,4.85
2023-04-10T01:22:59.576Z,4.77
2023-04-10T01:23:59.562Z,4.73
2023-04-10T01:24:59.542Z,4.72
2023-04-10T01:25:59.523Z,4.82
2023-04-10T01:26:59.518Z,4.91
2023-04-10T01:27:59.516Z,4.99
2023-04-10T01:28:59.515Z,4.96
2023-04-10T01:29:59.468Z,4.91
2023-04-10T01:30:59.498Z,4.88
2023-04-10T01:31:59.433Z,4.89
2023-04-10T01:32:59.510Z,4.94
2023-04-10T01:33:59.449Z,4.97
2023-04-10T01:34:59.413Z,5.00
2023-04-10T01:35:59.422Z,4.97
2023-04-10T01:36:59.364Z,4.92
2023-04-10T01:37:59.438Z,4.88
2023-04-10T01:38:59.384Z,4.88
2023-04-10T01:39:59.360Z,4.94
2023-04-10T01:40:59.446Z,5.02
2023-04-10T01:41:59.399Z,4.97
2023-04-10T01:42:59.313Z,4.97
2023-04-10T01:43:59.314Z,5.00
2023-04-10T01:44:59.377Z,5.03
2023-04-10T01:45:59.336Z,5.04
2023-04-10T01:46:59.226Z,5.06
2023-04-10T01:47:59.346Z,4.94
2023-04-10T01:48:59.329Z,4.84
2023-04-10T01:49:59.213Z,4.75
2023-04-10T01:50:59.174Z,4.67
2023-04-10T01:51:59.204Z,4.54
2023-04-10T01:52:59.139Z,4.42
2023-04-10T01:53:59.156Z,4.34
2023-04-10T01:54:59.112Z,4.33
2023-04-10T01:55:59.169Z,4.33
2023-04-10T01:56:59.094Z,4.30
2023-04-10T01:57:59.421Z,4.23
2023-04-10T01:58:59.083Z,4.23
2023-04-10T01:59:59.084Z,4.24
2023-04-10T02:00:59.047Z,4.23
2023-04-10T02:01:59.256Z,4.18
2023-04-10T02:02:59.314Z,4.08
2023-04-10T02:03:59.185Z,3.94
2023-04-10T02:04:59.032Z,3.86
2023-04-10T02:05:59.006Z,3.80
2023-04-10T02:06:58.972Z,3.80
2023-04-10T02:07:58.990Z,3.83
2023-04-10T02:08:58.954Z,3.86
2023-04-10T02:09:58.928Z,3.90
2023-04-10T02:10:58.907Z,3.93
2023-04-10T02:11:58.917Z,3.93
2023-04-10T02:12:58.915Z,3.94
2023-04-10T02:13:58.908Z,3.88
2023-04-10T02:14:58.872Z,3.84
2023-04-10T02:15:58.927Z,3.84
2023-04-10T02:16:58.848Z,3.86
2023-04-10T02:17:58.901Z,3.91
2023-04-10T02:18:58.808Z,3.94
2023-04-10T02:19:58.829Z,4.05
2023-04-10T02:20:58.767Z,4.16
2023-04-10T02:21:58.807Z,4.30
2023-04-10T02:22:58.756Z,4.42
2023-04-10T02:23:58.782Z,4.52
2023-04-10T02:24:58.738Z,4.60
2023-04-10T02:25:58.760Z,4.73
2023-04-10T02:26:58.689Z,4.82
2023-04-10T02:27:58.708Z,4.86
2023-04-10T02:28:58.706Z,4.92
2023-04-10T02:29:58.681Z,5.00
2023-04-10T02:30:58.756Z,5.03
2023-04-10T02:31:58.679Z,5.04
2023-04-10T02:32:58.720Z,5.10
2023-04-10T02:33:58.639Z,5.18
2023-04-10T02:34:58.623Z,5.20
2023-04-10T02:35:58.657Z,5.17
2023-04-10T02:36:58.611Z,5.17
2023-04-10T02:37:58.567Z,5.18
2023-04-10T02:38:58.532Z,5.20
2023-04-10T02:39:58.566Z,5.17
2023-04-10T02:40:58.529Z,5.18
2023-04-10T02:41:58.519Z,5.22
2023-04-10T02:42:58.487Z,5.21
2023-04-10T02:43:58.496Z,5.20
2023-04-10T02:44:58.461Z,5.24
2023-04-10T02:45:58.505Z,5.25
2023-04-10T02:46:58.458Z,5.31
2023-04-10T02:47:58.507Z,5.33
2023-04-10T02:48:58.409Z,5.35
2023-04-10T02:49:58.422Z,5.38
2023-04-10T02:50:58.388Z,5.31
2023-04-10T02:51:58.419Z,5.24
2023-04-10T02:52:58.346Z,5.27
2023-04-10T02:53:58.373Z,5.27
2023-04-10T02:54:58.335Z,5.28
2023-04-10T02:55:58.377Z,5.27
2023-04-10T02:56:58.296Z,5.30
2023-04-10T02:57:58.318Z,5.31
2023-04-10T02:58:58.285Z,5.38
2023-04-10T02:59:58.297Z,5.40
2023-04-10T03:00:58.267Z,5.40
2023-04-10T03:01:58.384Z,5.42
2023-04-10T03:02:58.385Z,5.42
2023-04-10T03:03:58.775Z,5.40
2023-04-10T03:04:58.265Z,5.38
2023-04-10T03:05:58.255Z,5.35
2023-04-10T03:06:58.160Z,5.35
2023-04-10T03:07:58.195Z,5.35
2023-04-10T03:08:58.150Z,5.35
2023-04-10T03:09:58.155Z,5.39
2023-04-10T03:10:58.105Z,5.40
2023-04-10T03:11:58.129Z,5.45
2023-04-10T03:12:58.119Z,5.51
2023-04-10T03:13:58.119Z,5.51
2023-04-10T03:14:58.076Z,5.51
2023-04-10T03:15:58.124Z,5.51
2023-04-10T03:16:58.030Z,5.46
2023-04-10T03:17:58.124Z,5.46
2023-04-10T03:18:58.023Z,5.48
2023-04-10T03:19:58.013Z,5.48
2023-04-10T03:20:57.973Z,5.45
2023-04-10T03:21:57.993Z,5.45
2023-04-10T03:22:57.948Z,5.43
2023-04-10T03:23:57.981Z,5.45
2023-04-10T03:24:57.929Z,5.46
2023-04-10T03:25:57.957Z,5.46
2023-04-10T03:26:57.892Z,5.45
2023-04-10T03:27:57.928Z,5.48
2023-04-10T03:28:57.871Z,5.46
2023-04-10T03:29:57.900Z,5.45
2023-04-10T03:30:57.856Z,5.40
2023-04-10T03:31:57.916Z,5.31
2023-04-10T03:32:57.816Z,5.24
2023-04-10T03:33:58.357Z,5.20
2023-04-10T03:34:57.780Z,5.21
2023-04-10T03:35:57.835Z,5.24
2023-04-10T03:36:57.785Z,5.25
2023-04-10T03:37:57.766Z,5.27
2023-04-10T03:38:57.734Z,5.27
2023-04-10T03:39:57.775Z,5.22
2023-04-10T03:40:57.753Z,5.21
2023-04-10T03:41:57.757Z,5.18
2023-04-10T03:42:57.708Z,5.13
2023-04-10T03:43:57.746Z,5.13
2023-04-10T03:44:57.712Z,5.12
2023-04-10T03:45:57.704Z,5.12
2023-04-10T03:46:57.723Z,5.13
2023-04-10T03:47:57.669Z,5.12
2023-04-10T03:48:57.610Z,5.12
2023-04-10T03:49:57.621Z,5.10
2023-04-10T03:50:57.633Z,5.10
2023-04-10T03:51:57.592Z,5.07
2023-04-10T03:52:57.554Z,5.07
2023-04-10T03:53:57.557Z,5.04
2023-04-10T03:54:57.552Z,5.06
2023-04-10T03:55:57.592Z,5.04
2023-04-10T03:56:57.556Z,5.06
2023-04-10T03:57:57.540Z,5.06
2023-04-10T03:58:57.466Z,5.06
2023-04-10T03:59:57.489Z,5.06
2023-04-10T04:00:57.503Z,5.06
2023-04-10T04:01:57.517Z,5.06
2023-04-10T04:02:57.585Z,5.06
2023-04-10T04:03:57.840Z,5.06
2023-04-10T04:04:57.411Z,5.06
2023-04-10T04:05:57.414Z,5.03
2023-04-10T04:06:57.406Z,5.04
2023-04-10T04:07:57.409Z,5.02
2023-04-10T04:08:57.325Z,4.99
2023-04-10T04:09:57.342Z,4.96
2023-04-10T04:10:57.307Z,4.94
2023-04-10T04:11:57.336Z,4.92
2023-04-10T04:12:57.306Z,4.86
2023-04-10T04:13:57.298Z,4.78
2023-04-10T04:14:57.251Z,4.70
2023-04-10T04:15:57.270Z,4.67
2023-04-10T04:16:57.361Z,4.72
2023-04-10T04:17:57.318Z,4.70
2023-04-10T04:18:57.202Z,4.66
2023-04-10T04:19:57.211Z,4.59
2023-04-10T04:20:57.190Z,4.62
2023-04-10T04:21:57.172Z,4.63
2023-04-10T04:22:57.176Z,4.63
2023-04-10T04:23:57.172Z,4.60
2023-04-10T04:24:57.113Z,4.62
2023-04-10T04:25:57.172Z,4.66
2023-04-10T04:26:57.114Z,4.69
2023-04-10T04:27:57.146Z,4.73
2023-04-10T04:28:57.090Z,4.78
2023-04-10T04:29:57.068Z,4.82
2023-04-10T04:30:57.057Z,4.84
2023-04-10T04:31:57.067Z,4.84
2023-04-10T04:32:57.065Z,4.82
2023-04-10T04:33:57.075Z,4.80
2023-04-10T04:34:57.012Z,4.80
2023-04-10T04:35:57.036Z,4.80
2023-04-10T04:36:56.960Z,4.82
2023-04-10T04:37:56.983Z,4.82
2023-04-10T04:38:56.972Z,4.82
2023-04-10T04:39:56.953Z,4.80
2023-04-10T04:40:56.973Z,4.80
2023-04-10T04:41:56.942Z,4.78
2023-04-10T04:42:56.879Z,4.77
2023-04-10T04:43:56.890Z,4.75
2023-04-10T04:44:56.886Z,4.73
2023-04-10T04:45:56.927Z,4.77
2023-04-10T04:46:56.816Z,4.75
2023-04-10T04:47:56.938Z,4.75
2023-04-10T04:48:56.855Z,4.73
2023-04-10T04:49:56.825Z,4.73
2023-04-10T04:50:56.788Z,4.73
2023-04-10T04:51:56.779Z,4.72
2023-04-10T04:52:56.786Z,4.72
2023-04-10T04:53:56.764Z,4.73
2023-04-10T04:54:56.733Z,4.77
2023-04-10T04:55:56.730Z,4.75
2023-04-10T04:56:56.728Z,4.75
2023-04-10T04:57:56.719Z,4.77
2023-04-10T04:58:56.742Z,4.78
2023-04-10T04:59:56.679Z,4.78
2023-04-10T05:00:56.657Z,4.82
2023-04-10T05:01:56.796Z,4.84
2023-04-10T05:02:56.806Z,4.85
2023-04-10T05:03:56.739Z,4.85
2023-04-10T05:04:56.580Z,4.85
2023-04-10T05:05:56.614Z,4.84
2023-04-10T05:06:56.563Z,4.82
2023-04-10T05:07:56.581Z,4.80
2023-04-10T05:08:56.668Z,4.78
2023-04-10T05:09:56.557Z,4.78
2023-04-10T05:10:56.573Z,4.80
2023-04-10T05:11:56.516Z,4.80
2023-04-10T05:12:56.503Z,4.77
2023-04-10T05:13:56.492Z,4.73
2023-04-10T05:14:56.459Z,4.67
2023-04-10T05:15:56.470Z,4.63
2023-04-10T05:16:56.444Z,4.60
2023-04-10T05:17:56.554Z,4.55
2023-04-10T05:18:56.750Z,4.54
2023-04-10T05:19:56.420Z,4.52
2023-04-10T05:20:56.376Z,4.51
2023-04-10T05:21:56.386Z,4.48
2023-04-10T05:22:56.391Z,4.50
2023-04-10T05:23:56.364Z,4.48
2023-04-10T05:24:56.314Z,4.48
2023-04-10T05:25:56.346Z,4.45
2023-04-10T05:26:56.331Z,4.45
2023-04-10T05:27:56.337Z,4.45
2023-04-10T05:28:56.527Z,4.42
2023-04-10T05:29:56.300Z,4.44
2023-04-10T05:30:56.315Z,4.51
2023-04-10T05:31:56.262Z,4.55
2023-04-10T05:32:56.278Z,4.58
2023-04-10T05:33:56.252Z,4.54
2023-04-10T05:34:56.192Z,4.48
2023-04-10T05:35:56.281Z,4.47
2023-04-10T05:36:58.811Z,4.45
2023-04-10T05:37:56.170Z,4.34
2023-04-10T05:38:56.490Z,4.27
2023-04-10T05:39:56.149Z,4.16
2023-04-10T05:40:56.124Z,4.11
2023-04-10T05:41:56.164Z,4.09
2023-04-10T05:42:56.078Z,4.05
2023-04-10T05:43:56.117Z,4.04
2023-04-10T05:44:56.047Z,4.05
2023-04-10T05:45:56.156Z,4.09
2023-04-10T05:46:56.068Z,4.05
2023-04-10T05:47:56.104Z,4.08
2023-04-10T05:48:56.285Z,4.14
2023-04-10T05:49:56.026Z,4.24
2023-04-10T05:50:56.008Z,4.34
2023-04-10T05:51:55.988Z,4.44
2023-04-10T05:52:55.987Z,4.55
2023-04-10T05:53:55.944Z,4.66
2023-04-10T05:54:55.961Z,4.75
2023-04-10T05:55:55.926Z,4.86
2023-04-10T05:56:55.962Z,4.96
2023-04-10T05:57:55.887Z,5.03
2023-04-10T05:58:56.527Z,5.07
2023-04-10T05:59:55.858Z,5.15
2023-04-10T06:00:55.869Z,5.20
2023-04-10T06:01:55.920Z,5.21
2023-04-10T06:02:55.962Z,5.22
2023-04-10T06:03:55.980Z,5.25
2023-04-10T06:04:55.996Z,5.30
2023-04-10T06:05:55.792Z,5.36
2023-04-10T06:06:55.835Z,5.43
2023-04-10T06:07:57.698Z,5.43
2023-04-10T06:08:55.950Z,5.46
2023-04-10T06:09:55.765Z,5.51
2023-04-10T06:10:55.740Z,5.54
2023-04-10T06:11:55.706Z,5.56
2023-04-10T06:12:55.704Z,5.60
2023-04-10T06:13:55.697Z,5.63
2023-04-10T06:14:55.685Z,5.72
2023-04-10T06:15:55.678Z,5.78
2023-04-10T06:16:55.689Z,5.86
2023-04-10T06:17:55.671Z,5.94
2023-04-10T06:18:55.915Z,6.01
2023-04-10T06:19:55.605Z,6.08
2023-04-10T06:20:55.620Z,6.14
2023-04-10T06:21:55.558Z,6.19
2023-04-10T06:22:55.630Z,6.25
2023-04-10T06:23:55.707Z,6.34
2023-04-10T06:24:55.577Z,6.38
2023-04-10T06:25:55.499Z,6.44
2023-04-10T06:26:55.516Z,6.55
2023-04-10T06:27:55.495Z,6.59
2023-04-10T06:28:55.693Z,6.62
2023-04-10T06:29:55.497Z,6.69
2023-04-10T06:30:55.507Z,6.76
2023-04-10T06:31:55.541Z,6.85
2023-04-10T06:32:55.479Z,6.91
2023-04-10T06:33:55.412Z,6.95
2023-04-10T06:34:55.434Z,6.99
2023-04-10T06:35:55.404Z,7.07
2023-04-10T06:36:55.393Z,7.15
2023-04-10T06:37:55.367Z,7.21
2023-04-10T06:38:55.604Z,7.25
2023-04-10T06:39:55.351Z,7.30
2023-04-10T06:40:55.369Z,7.37
2023-04-10T06:41:55.290Z,7.45
2023-04-10T06:42:55.340Z,7.50
2023-04-10T06:43:55.267Z,7.52
2023-04-10T06:44:55.291Z,7.55
2023-04-10T06:45:55.259Z,7.63
2023-04-10T06:46:55.303Z,7.69
2023-04-10T06:47:55.238Z,7.72
2023-04-10T06:48:55.376Z,7.79
2023-04-10T06:49:55.199Z,7.82
2023-04-10T06:50:55.233Z,7.85
2023-04-10T06:51:55.160Z,7.90
2023-04-10T06:52:55.178Z,7.95
2023-04-10T06:53:55.167Z,8.04
2023-04-10T06:54:55.148Z,8.07
2023-04-10T06:55:55.117Z,8.11
2023-04-10T06:56:55.145Z,8.15
2023-04-10T06:57:55.098Z,8.22
2023-04-10T06:58:55.340Z,8.29
2023-04-10T06:59:55.074Z,8.36
2023-04-10T07:00:55.107Z,8.38
2023-04-10T07:01:55.092Z,8.45
2023-04-10T07:02:55.277Z,8.52
2023-04-10T07:03:55.035Z,8.56
2023-04-10T07:04:55.025Z,8.62
2023-04-10T07:05:55.030Z,8.70
2023-04-10T07:06:54.990Z,8.71
2023-04-10T07:07:55.019Z,8.76
2023-04-10T07:08:55.247Z,8.81
2023-04-10T07:09:55.008Z,8.89
2023-04-10T07:10:56.643Z,8.92
2023-04-10T07:11:54.982Z,8.98
2023-04-10T07:12:54.930Z,9.08
2023-04-10T07:13:54.896Z,9.20
2023-04-10T07:14:54.920Z,9.29
2023-04-10T07:15:54.931Z,9.36
2023-04-10T07:16:54.859Z,9.42
2023-04-10T07:17:54.861Z,9.48
2023-04-10T07:18:54.983Z,9.53
2023-04-10T07:19:54.840Z,9.58
2023-04-10T07:20:54.817Z,9.65
2023-04-10T07:21:54.775Z,9.74
2023-04-10T07:22:54.810Z,9.78
2023-04-10T07:23:54.775Z,9.83
2023-04-10T07:24:54.754Z,9.86
2023-04-10T07:25:54.746Z,9.94
2023-04-10T07:26:54.729Z,10.01
2023-04-10T07:27:54.697Z,10.12
2023-04-10T07:28:55.138Z,10.20
2023-04-10T07:29:54.700Z,10.26
2023-04-10T07:30:54.679Z,10.26
2023-04-10T07:31:54.704Z,10.26
2023-04-10T07:32:54.835Z,10.32
2023-04-10T07:33:54.614Z,10.41
2023-04-10T07:34:54.652Z,10.51
2023-04-10T07:35:54.639Z,10.55
2023-04-10T07:36:54.678Z,10.63
2023-04-10T07:37:54.624Z,10.70
2023-04-10T07:38:54.729Z,10.73
2023-04-10T07:39:54.535Z,10.78
2023-04-10T07:40:54.576Z,10.85
2023-04-10T07:41:54.510Z,10.96
2023-04-10T07:42:54.562Z,10.97
2023-04-10T07:43:54.538Z,11.03
2023-04-10T07:44:54.497Z,11.10
2023-04-10T07:45:54.511Z,11.21
2023-04-10T07:46:54.479Z,11.25
2023-04-10T07:47:54.551Z,11.29
2023-04-10T07:48:54.512Z,11.39
2023-04-10T07:49:54.425Z,11.47
2023-04-10T07:50:54.421Z,11.60
2023-04-10T07:51:54.411Z,11.67
2023-04-10T07:52:54.403Z,11.70
2023-04-10T07:53:54.360Z,11.75
2023-04-10T07:54:54.390Z,11.86
2023-04-10T07:55:54.315Z,12.07
2023-04-10T07:56:54.380Z,12.19
2023-04-10T07:57:54.318Z,12.34
2023-04-10T07:58:54.500Z,12.34
2023-04-10T07:59:54.266Z,12.29
2023-04-10T08:00:54.273Z,12.21
2023-04-10T08:01:54.332Z,12.21
2023-04-10T08:02:54.474Z,12.29
2023-04-10T08:03:54.329Z,12.35
2023-04-10T08:04:54.375Z,12.28
2023-04-10T08:05:54.179Z,12.31
2023-04-10T08:06:54.202Z,12.32
2023-04-10T08:07:54.200Z,12.39
2023-04-10T08:08:54.498Z,12.46
2023-04-10T08:09:54.149Z,12.53
2023-04-10T08:10:54.146Z,12.68
2023-04-10T08:11:54.155Z,12.67
2023-04-10T08:12:54.141Z,12.67
2023-04-10T08:13:54.086Z,12.70
2023-04-10T08:14:54.090Z,12.74
2023-04-10T08:15:54.066Z,12.71
2023-04-10T08:16:54.082Z,12.78
2023-04-10T08:17:54.138Z,12.90
2023-04-10T08:18:54.415Z,13.03
2023-04-10T08:19:54.006Z,13.12
2023-04-10T08:20:54.019Z,13.08
2023-04-10T08:21:53.999Z,13.04
2023-04-10T08:22:54.018Z,13.04
2023-04-10T08:23:53.960Z,13.08
2023-04-10T08:24:53.955Z,13.23
2023-04-10T08:25:53.945Z,13.26
2023-04-10T08:26:53.934Z,13.38
2023-04-10T08:27:53.888Z,13.51
2023-04-10T08:28:54.137Z,13.51
2023-04-10T08:29:53.892Z,13.44
2023-04-10T08:30:53.914Z,13.45
2023-04-10T08:31:53.831Z,13.39
2023-04-10T08:32:53.881Z,13.38
2023-04-10T08:33:54.174Z,13.39
2023-04-10T08:34:53.831Z,13.41
2023-04-10T08:35:53.844Z,13.46
2023-04-10T08:36:53.808Z,13.54
2023-04-10T08:38:11.830Z,13.67
2023-04-10T08:38:53.774Z,13.70
2023-04-10T08:39:53.762Z,13.77
2023-04-10T08:40:53.739Z,13.85
2023-04-10T08:41:53.725Z,13.99
2023-04-10T08:42:53.709Z,14.18
2023-04-10T08:43:53.923Z,14.35
2023-04-10T08:44:53.693Z,14.51
2023-04-10T08:45:53.644Z,14.64
2023-04-10T08:46:53.686Z,14.80
2023-04-10T08:47:53.666Z,14.62
2023-04-10T08:48:53.704Z,14.47
2023-04-10T08:49:53.609Z,14.32
2023-04-10T08:50:53.600Z,14.29
2023-04-10T08:51:53.561Z,14.28
2023-04-10T08:52:53.582Z,14.45
2023-04-10T08:53:53.790Z,14.47
2023-04-10T08:54:53.583Z,14.43
2023-04-10T08:55:53.540Z,14.40
2023-04-10T08:56:53.534Z,14.50
2023-04-10T08:58:00.534Z,14.60
2023-04-10T08:58:53.502Z,14.68
2023-04-10T08:59:53.509Z,14.86
2023-04-10T09:00:53.464Z,15.14
2023-04-10T09:01:53.731Z,15.41
2023-04-10T09:02:53.543Z,15.20
2023-04-10T09:03:53.581Z,14.98
2023-04-10T09:04:53.525Z,14.80
2023-04-10T09:05:53.368Z,14.60
2023-04-10T09:06:53.396Z,14.64
2023-04-10T09:07:53.381Z,14.73
2023-04-10T09:08:53.376Z,14.95
2023-04-10T09:09:53.332Z,15.11
2023-04-10T09:10:54.549Z,15.11
2023-04-10T09:11:53.351Z,15.17
2023-04-10T09:12:53.308Z,15.31
2023-04-10T09:13:53.253Z,15.41
2023-04-10T09:14:53.342Z,15.03
2023-04-10T09:15:53.321Z,14.96
2023-04-10T09:16:53.285Z,14.99
2023-04-10T09:17:53.289Z,15.06
2023-04-10T09:18:53.241Z,15.03
2023-04-10T09:19:53.225Z,15.07
2023-04-10T09:20:53.194Z,15.19
2023-04-10T09:21:53.165Z,15.34
2023-04-10T09:22:53.173Z,15.44
2023-04-10T09:23:53.285Z,15.53
2023-04-10T09:24:53.200Z,15.60
2023-04-10T09:25:53.118Z,15.69
2023-04-10T09:26:53.136Z,15.76
2023-04-10T09:27:53.111Z,15.68
2023-04-10T09:28:53.087Z,15.65
2023-04-10T09:29:53.076Z,15.74
2023-04-10T09:30:53.067Z,15.82
2023-04-10T09:31:53.059Z,15.78
2023-04-10T09:32:53.121Z,15.69
2023-04-10T09:33:53.226Z,15.65
2023-04-10T09:34:53.021Z,15.38
2023-04-10T09:35:53.001Z,15.38
2023-04-10T09:36:52.990Z,15.50
2023-04-10T09:37:52.961Z,15.51
2023-04-10T09:38:52.948Z,15.50
2023-04-10T09:39:52.907Z,15.43
2023-04-10T09:40:54.426Z,15.47
2023-04-10T09:41:52.912Z,15.60
2023-04-10T09:42:52.926Z,15.72
2023-04-10T09:43:53.223Z,15.87
2023-04-10T09:44:52.902Z,15.84
2023-04-10T09:45:52.844Z,15.67
2023-04-10T09:46:52.921Z,15.67
2023-04-10T09:47:52.894Z,15.69
2023-04-10T09:48:52.827Z,15.72
2023-04-10T09:49:52.837Z,15.68
2023-04-10T09:50:52.827Z,15.75
2023-04-10T09:51:52.769Z,15.90
2023-04-10T09:52:52.809Z,16.05
2023-04-10T09:53:53.078Z,16.24
2023-04-10T09:54:52.764Z,16.41
2023-04-10T09:55:52.720Z,16.50
2023-04-10T09:56:52.731Z,16.57
2023-04-10T09:57:52.731Z,16.49
2023-04-10T09:58:52.903Z,16.28
2023-04-10T09:59:52.657Z,16.15
2023-04-10T10:00:52.685Z,16.15
2023-04-10T10:01:52.711Z,16.14
2023-04-10T10:02:52.809Z,16.05
2023-04-10T10:03:52.645Z,15.84
2023-04-10T10:04:52.718Z,15.72
2023-04-10T10:05:52.565Z,15.71
2023-04-10T10:06:52.584Z,15.82
2023-04-10T10:07:52.577Z,16.00
2023-04-10T10:08:52.539Z,16.12
2023-04-10T10:09:52.538Z,16.12
2023-04-10T10:10:52.568Z,16.12
2023-04-10T10:11:52.541Z,16.11
2023-04-10T10:12:52.515Z,16.30
2023-04-10T10:13:52.488Z,16.41
2023-04-10T10:14:52.460Z,16.60
2023-04-10T10:15:52.521Z,16.70
2023-04-10T10:16:52.419Z,16.57
2023-04-10T10:17:52.493Z,16.60
2023-04-10T10:18:52.829Z,16.58
2023-04-10T10:19:52.429Z,16.71
2023-04-10T10:20:52.389Z,16.91
2023-04-10T10:21:52.411Z,16.98
2023-04-10T10:22:52.350Z,17.00
2023-04-10T10:23:52.367Z,17.08
2023-04-10T10:24:52.344Z,17.07
2023-04-10T10:25:52.375Z,17.08
2023-04-10T10:26:52.292Z,17.21
2023-04-10T10:27:52.313Z,17.34
2023-04-10T10:28:52.272Z,17.37
2023-04-10T10:29:52.311Z,17.21
2023-04-10T10:30:52.236Z,17.21
2023-04-10T10:31:52.326Z,17.23
2023-04-10T10:32:52.289Z,17.25
2023-04-10T10:33:52.240Z,17.23
2023-04-10T10:34:52.201Z,17.31
2023-04-10T10:35:52.218Z,17.37
2023-04-10T10:36:52.215Z,17.43
2023-04-10T10:37:52.195Z,17.38
2023-04-10T10:38:52.479Z,17.30
2023-04-10T10:39:52.148Z,17.30
2023-04-10T10:40:52.129Z,17.28
2023-04-10T10:41:52.123Z,17.37
2023-04-10T10:42:52.104Z,17.48
2023-04-10T10:43:52.123Z,17.56
2023-04-10T10:44:52.077Z,17.52
2023-04-10T10:45:52.068Z,17.46
2023-04-10T10:46:52.056Z,17.44
2023-04-10T10:47:52.112Z,17.49
2023-04-10T10:48:52.384Z,17.51
2023-04-10T10:49:52.021Z,17.52
2023-04-10T10:50:51.984Z,17.54
2023-04-10T10:51:51.992Z,17.49
2023-04-10T10:52:51.941Z,17.43
2023-04-10T10:53:51.994Z,17.36
2023-04-10T10:54:59.084Z,17.28
2023-04-10T10:55:51.944Z,17.28
2023-04-10T10:56:51.918Z,17.15
2023-04-10T10:57:51.911Z,17.14
2023-04-10T10:58:51.985Z,17.21
2023-04-10T10:59:51.879Z,17.28
2023-04-10T11:00:51.887Z,17.37
2023-04-10T11:01:52.016Z,17.36
2023-04-10T11:02:51.901Z,17.37
2023-04-10T11:03:51.901Z,17.44
2023-04-10T11:04:51.775Z,17.55
2023-04-10T11:05:51.813Z,17.52
2023-04-10T11:06:51.766Z,17.44
2023-04-10T11:07:51.779Z,17.46
2023-04-10T11:08:51.754Z,17.54
2023-04-10T11:09:51.767Z,17.56
2023-04-10T11:10:51.716Z,17.63
2023-04-10T11:11:51.708Z,17.71
2023-04-10T11:12:51.688Z,17.72
2023-04-10T11:13:51.720Z,17.71
2023-04-10T11:14:51.660Z,17.70
2023-04-10T11:15:51.671Z,17.68
2023-04-10T11:16:51.731Z,17.63
2023-04-10T11:17:52.036Z,17.72
2023-04-10T11:19:02.680Z,17.78
2023-04-10T11:19:51.645Z,17.77
2023-04-10T11:20:51.592Z,17.81
2023-04-10T11:21:51.611Z,17.77
2023-04-10T11:22:51.622Z,17.79
2023-04-10T11:23:51.559Z,17.82
2023-04-10T11:24:51.513Z,17.90
2023-04-10T11:25:51.553Z,18.02
2023-04-10T11:26:51.499Z,18.10
2023-04-10T11:27:51.527Z,18.17
2023-04-10T11:28:51.469Z,18.21
2023-04-10T11:29:51.483Z,18.18
2023-04-10T11:30:51.471Z,18.12
2023-04-10T11:31:51.511Z,18.05
2023-04-10T11:32:51.533Z,17.92
2023-04-10T11:33:51.424Z,17.79
2023-04-10T11:34:51.381Z,17.71
2023-04-10T11:35:51.435Z,17.71
2023-04-10T11:36:51.379Z,17.72
2023-04-10T11:37:51.361Z,17.77
2023-04-10T11:38:51.472Z,17.84
2023-04-10T11:39:51.350Z,17.93
2023-04-10T11:40:51.292Z,18.07
2023-04-10T11:41:51.361Z,18.18
2023-04-10T11:42:51.274Z,18.25
2023-04-10T11:43:51.297Z,18.30
2023-04-10T11:44:51.262Z,18.36
2023-04-10T11:45:51.368Z,18.36
2023-04-10T11:46:51.253Z,18.35
2023-04-10T11:47:51.268Z,18.30
2023-04-10T11:48:51.233Z,18.26
2023-04-10T11:49:51.207Z,18.23
2023-04-10T11:50:51.161Z,18.21
2023-04-10T11:51:51.205Z,18.20
2023-04-10T11:52:51.198Z,18.18
2023-04-10T11:53:51.154Z,18.07
2023-04-10T11:54:51.146Z,17.95
2023-04-10T11:55:51.126Z,17.89
2023-04-10T11:56:51.086Z,17.78
2023-04-10T11:57:51.091Z,17.79
2023-04-10T11:58:51.152Z,17.79
2023-04-10T11:59:51.093Z,17.81
2023-04-10T12:00:51.049Z,17.84
2023-04-10T12:01:51.087Z,17.89
2023-04-10T12:02:51.242Z,17.95
2023-04-10T12:03:51.247Z,18.00
2023-04-10T12:04:51.158Z,18.10
2023-04-10T12:05:50.994Z,18.18
2023-04-10T12:06:50.956Z,18.25
2023-04-10T12:07:51.002Z,18.26
2023-04-10T12:08:51.073Z,18.17
2023-04-10T12:09:50.965Z,18.14
2023-04-10T12:10:50.911Z,18.10
2023-04-10T12:11:50.911Z,18.11
2023-04-10T12:12:50.894Z,18.17
2023-04-10T12:13:50.945Z,18.23
2023-04-10T12:14:50.856Z,18.26
2023-04-10T12:15:50.878Z,18.26
2023-04-10T12:16:50.847Z,18.11
2023-04-10T12:17:50.992Z,18.11
2023-04-10T12:18:50.822Z,18.17
2023-04-10T12:19:50.829Z,18.20
2023-04-10T12:20:50.793Z,18.15
2023-04-10T12:21:50.807Z,18.17
2023-04-10T12:22:50.754Z,18.17
2023-04-10T12:23:50.774Z,18.23
2023-04-10T12:24:50.736Z,18.29
2023-04-10T12:25:50.752Z,18.30
2023-04-10T12:26:50.751Z,18.33
2023-04-10T12:27:50.713Z,18.37
2023-04-10T12:28:50.666Z,18.36
2023-04-10T12:29:50.686Z,18.42
2023-04-10T12:30:50.674Z,18.39
2023-04-10T12:31:50.683Z,18.41
2023-04-10T12:32:50.695Z,18.41
2023-04-10T12:33:50.618Z,18.41
2023-04-10T12:34:50.610Z,18.37
2023-04-10T12:35:50.677Z,18.41
2023-04-10T12:36:50.552Z,18.45
2023-04-10T12:37:50.610Z,18.47
2023-04-10T12:38:50.587Z,18.48
2023-04-10T12:39:50.551Z,18.51
2023-04-10T12:40:50.543Z,18.58
2023-04-10T12:41:50.534Z,18.57
2023-04-10T12:42:50.484Z,18.51
2023-04-10T12:43:50.512Z,18.44
2023-04-10T12:44:50.467Z,18.39
2023-04-10T12:45:50.462Z,18.39
2023-04-10T12:46:50.493Z,18.48
2023-04-10T12:47:50.481Z,18.51
2023-04-10T12:48:50.401Z,18.54
2023-04-10T12:49:50.424Z,18.57
2023-04-10T12:50:50.396Z,18.62
2023-04-10T12:51:50.448Z,18.66
2023-04-10T12:52:50.372Z,18.73
2023-04-10T12:53:50.402Z,18.81
2023-04-10T12:54:50.312Z,18.85
2023-04-10T12:55:50.348Z,18.88
2023-04-10T12:56:50.310Z,18.88
2023-04-10T12:57:50.308Z,18.84
2023-04-10T12:58:50.291Z,18.76
2023-04-10T12:59:50.311Z,18.72
2023-04-10T13:00:50.265Z,18.69
2023-04-10T13:01:50.331Z,18.63
2023-04-10T13:02:50.450Z,18.62
2023-04-10T13:03:50.280Z,18.63
2023-04-10T13:04:50.340Z,18.67
2023-04-10T13:05:50.168Z,18.73
2023-04-10T13:06:50.187Z,18.76
2023-04-10T13:07:50.144Z,18.82
2023-04-10T13:08:50.156Z,18.87